Time;durP1;ratioP1;P1;durP2;ratioP2;P2;SDS_P1;SDS_P2;PMS_P1;PMS_P2;Temp;Humidity;BMP_temperature;BMP_pressure;BME280_temperature;BME280_humidity;BME280_pressure;Samples;Min_cycle;Max_cycle;Signal;HPM_P1;HPM_P2
2023/10/05 00:01:27;;;;;;;13.68;4.43;;;;;;;;;;5024179;28;20077;-75
2023/10/05 00:03:53;;;;;;;10.57;4.18;;;;;;;;;;5022678;28;20025;-75
2023/10/05 00:06:23;;;;;;;11.65;4.60;;;;;;;;;;5020624;28;20194;-74
2023/10/05 00:08:52;;;;;;;9.00;4.18;;;;;;;;;;5028193;28;20145;-75
2023/10/05 00:11:37;;;;;;;12.43;4.47;;;;;;;;;;5032026;28;20028;-75
2023/10/05 00:14:09;;;;;;;9.57;4.07;;;;;;;;;;5038825;28;20083;-74
2023/10/05 00:16:37;;;;;;;12.98;3.80;;;;;;;;;;5034300;28;20020;-75
2023/10/05 00:19:13;;;;;;;9.98;3.85;;;;;;;;;;5037035;28;20033;-75
2023/10/05 00:21:43;;;;;;;13.63;3.92;;;;;;;;;;5022017;28;20652;-75
2023/10/05 00:24:08;;;;;;;9.73;3.53;;;;;;;;;;5019352;28;20043;-75
2023/10/05 00:26:34;;;;;;;11.10;3.60;;;;;;;;;;5037494;28;20128;-75
2023/10/05 00:29:24;;;;;;;8.65;3.53;;;;;;;;;;5032461;28;20016;-74
2023/10/05 00:31:49;;;;;;;9.75;3.65;;;;;;;;;;5025197;28;20039;-74
2023/10/05 00:36:49;;;;;;;10.20;3.58;;;;;;;;;;5023840;28;20024;-73
2023/10/05 00:39:19;;;;;;;11.02;3.33;;;;;;;;;;5022710;28;20056;-75
2023/10/05 00:41:45;;;;;;;10.73;3.40;;;;;;;;;;5033044;28;20771;-73
2023/10/05 00:44:13;;;;;;;9.93;3.58;;;;;;;;;;5027668;28;20028;-73
2023/10/05 00:46:41;;;;;;;9.48;3.35;;;;;;;;;;5020453;28;20807;-73
2023/10/05 00:49:15;;;;;;;9.95;3.45;;;;;;;;;;5017377;28;20144;-73
2023/10/05 00:51:47;;;;;;;11.23;3.70;;;;;;;;;;5012256;28;20678;-73
2023/10/05 00:54:18;;;;;;;8.45;3.40;;;;;;;;;;5010971;28;20012;-73
2023/10/05 00:56:46;;;;;;;8.13;3.28;;;;;;;;;;5021932;28;20031;-74
2023/10/05 00:59:20;;;;;;;13.50;3.60;;;;;;;;;;5020011;28;20020;-73
2023/10/05 01:02:06;;;;;;;10.02;3.60;;;;;;;;;;5015922;28;20742;-73
2023/10/05 01:04:42;;;;;;;9.25;3.42;;;;;;;;;;5015395;28;20020;-74
2023/10/05 01:07:18;;;;;;;10.13;3.60;;;;;;;;;;5021797;28;20023;-73
2023/10/05 01:14:52;;;;;;;10.40;3.08;;;;;;;;;;5025982;28;20081;-74
2023/10/05 01:17:21;;;;;;;7.35;3.13;;;;;;;;;;5029457;28;20035;-73
2023/10/05 01:19:56;;;;;;;9.95;3.22;;;;;;;;;;5023326;28;20016;-74
2023/10/05 01:22:32;;;;;;;9.90;3.55;;;;;;;;;;5015373;28;20035;-73
2023/10/05 01:24:59;;;;;;;9.90;3.30;;;;;;;;;;5020953;28;20806;-73
2023/10/05 01:27:29;;;;;;;10.57;3.53;;;;;;;;;;5015333;28;20040;-73
2023/10/05 01:29:58;;;;;;;8.55;3.40;;;;;;;;;;5013489;28;20669;-73
2023/10/05 01:32:24;;;;;;;8.88;3.22;;;;;;;;;;5011684;28;20889;-75
2023/10/05 01:34:50;;;;;;;8.50;3.28;;;;;;;;;;5023370;28;20404;-73
2023/10/05 01:37:23;;;;;;;8.45;3.17;;;;;;;;;;5022069;28;20737;-73
2023/10/05 01:39:52;;;;;;;10.05;3.50;;;;;;;;;;5024792;28;20032;-75
2023/10/05 01:42:18;;;;;;;9.75;3.33;;;;;;;;;;5021888;28;20025;-73
2023/10/05 01:44:47;;;;;;;8.38;3.25;;;;;;;;;;5020408;28;20200;-73
2023/10/05 01:47:17;;;;;;;8.18;3.20;;;;;;;;;;5025169;28;20530;-73
2023/10/05 01:49:44;;;;;;;8.35;3.10;;;;;;;;;;5025696;28;20111;-73
2023/10/05 01:52:09;;;;;;;9.70;3.72;;;;;;;;;;5014280;28;20021;-73
2023/10/05 01:54:36;;;;;;;14.40;3.90;;;;;;;;;;5010550;28;20017;-74
2023/10/05 01:57:03;;;;;;;11.63;3.30;;;;;;;;;;5027655;28;20103;-73
2023/10/05 01:59:28;;;;;;;8.25;3.08;;;;;;;;;;5021373;28;20131;-74
2023/10/05 02:01:54;;;;;;;9.40;3.10;;;;;;;;;;5015119;28;20412;-73
2023/10/05 02:04:22;;;;;;;10.85;3.35;;;;;;;;;;5023794;28;20013;-72
2023/10/05 02:06:49;;;;;;;7.38;3.13;;;;;;;;;;5025562;28;20024;-74
2023/10/05 02:09:19;;;;;;;7.20;2.90;;;;;;;;;;5012163;28;20024;-73
2023/10/05 02:11:45;;;;;;;9.07;3.20;;;;;;;;;;5019322;28;20680;-75
2023/10/05 02:14:12;;;;;;;8.85;3.30;;;;;;;;;;5028742;28;20028;-75
2023/10/05 02:16:38;;;;;;;8.88;3.08;;;;;;;;;;5025262;28;20032;-72
2023/10/05 02:19:06;;;;;;;8.93;2.90;;;;;;;;;;5025228;28;20017;-75
2023/10/05 02:21:37;;;;;;;11.55;3.60;;;;;;;;;;5021701;28;20287;-75
2023/10/05 02:24:17;;;;;;;8.25;3.42;;;;;;;;;;5016033;28;20016;-73
2023/10/05 02:29:29;;;;;;;8.00;2.95;;;;;;;;;;5025039;28;20028;-73
2023/10/05 02:34:48;;;;;;;9.45;3.25;;;;;;;;;;5028582;28;20115;-73
2023/10/05 02:37:19;;;;;;;9.50;3.08;;;;;;;;;;5027713;28;20100;-73
2023/10/05 02:39:45;;;;;;;7.70;3.30;;;;;;;;;;5031349;28;20120;-73
2023/10/05 02:42:14;;;;;;;10.45;2.83;;;;;;;;;;5030682;28;20059;-73
2023/10/05 02:44:42;;;;;;;8.95;3.20;;;;;;;;;;5026263;28;20032;-73
2023/10/05 02:47:14;;;;;;;11.32;3.13;;;;;;;;;;5009815;28;20017;-73
2023/10/05 02:49:44;;;;;;;10.10;3.20;;;;;;;;;;5015126;28;20095;-73
2023/10/05 02:52:13;;;;;;;7.68;2.78;;;;;;;;;;5014399;28;20032;-74
2023/10/05 02:54:42;;;;;;;9.95;3.15;;;;;;;;;;5025907;28;20036;-73
2023/10/05 02:57:08;;;;;;;8.40;3.08;;;;;;;;;;5026786;28;20057;-74
2023/10/05 02:59:34;;;;;;;9.35;2.92;;;;;;;;;;5023588;28;20017;-73
2023/10/05 03:02:06;;;;;;;11.18;3.05;;;;;;;;;;5022024;28;20040;-73
2023/10/05 03:05:17;;;;;;;10.05;3.20;;;;;;;;;;5022610;28;20685;-73
2023/10/05 03:07:18;;;;;;;9.75;3.15;;;;;;;;;;5021704;28;20032;-73
2023/10/05 03:09:48;;;;;;;8.15;3.40;;;;;;;;;;5022432;28;20023;-73
2023/10/05 03:12:14;;;;;;;9.40;2.70;;;;;;;;;;5013235;28;20086;-74
2023/10/05 03:14:43;;;;;;;8.18;2.92;;;;;;;;;;5023522;28;20203;-73
2023/10/05 03:17:13;;;;;;;9.25;2.90;;;;;;;;;;5027236;28;20671;-73
2023/10/05 03:19:39;;;;;;;6.47;2.70;;;;;;;;;;5023208;28;20028;-73
2023/10/05 03:22:08;;;;;;;11.35;3.10;;;;;;;;;;5016866;28;20037;-74
2023/10/05 03:24:33;;;;;;;9.18;3.30;;;;;;;;;;5026205;28;20036;-73
2023/10/05 03:27:03;;;;;;;9.15;3.38;;;;;;;;;;5023298;28;20023;-73
2023/10/05 03:29:29;;;;;;;8.63;3.17;;;;;;;;;;5030781;28;20024;-73
2023/10/05 03:32:04;;;;;;;10.52;3.60;;;;;;;;;;5023504;28;20023;-73
2023/10/05 03:34:31;;;;;;;11.18;3.15;;;;;;;;;;5026680;28;20184;-73
2023/10/05 03:36:59;;;;;;;11.77;3.08;;;;;;;;;;5039170;28;20810;-73
2023/10/05 03:39:28;;;;;;;10.30;3.15;;;;;;;;;;5027130;28;20040;-73
2023/10/05 03:41:54;;;;;;;9.23;2.90;;;;;;;;;;5027375;28;20024;-73
2023/10/05 03:44:19;;;;;;;8.25;3.05;;;;;;;;;;5023432;28;20074;-73
2023/10/05 03:46:49;;;;;;;9.68;3.25;;;;;;;;;;5023399;28;20095;-73
2023/10/05 03:49:14;;;;;;;8.32;3.47;;;;;;;;;;5025787;28;20527;-73
2023/10/05 03:51:49;;;;;;;7.57;3.05;;;;;;;;;;5026466;28;20107;-73
2023/10/05 03:54:17;;;;;;;9.90;3.40;;;;;;;;;;5014055;28;20017;-73
2023/10/05 03:56:44;;;;;;;9.13;3.03;;;;;;;;;;5007233;28;20029;-72
2023/10/05 03:59:10;;;;;;;9.05;3.13;;;;;;;;;;5015701;28;20499;-73
2023/10/05 04:01:36;;;;;;;6.28;2.70;;;;;;;;;;5029078;28;20611;-73
2023/10/05 04:04:07;;;;;;;8.10;3.13;;;;;;;;;;5023119;28;20145;-73
2023/10/05 04:06:33;;;;;;;12.15;3.05;;;;;;;;;;5024473;28;20512;-72
2023/10/05 04:08:58;;;;;;;7.63;3.10;;;;;;;;;;5018264;28;20034;-73
2023/10/05 04:11:26;;;;;;;9.07;2.90;;;;;;;;;;5011490;28;20033;-72
2023/10/05 04:13:55;;;;;;;7.47;2.67;;;;;;;;;;5022964;28;20073;-72
2023/10/05 04:16:33;;;;;;;10.65;2.97;;;;;;;;;;5026436;28;20773;-73
2023/10/05 04:19:04;;;;;;;10.57;3.38;;;;;;;;;;5018266;28;20020;-73
2023/10/05 04:21:30;;;;;;;8.35;2.88;;;;;;;;;;5016789;28;20093;-73
2023/10/05 04:23:59;;;;;;;8.65;3.00;;;;;;;;;;5020680;28;20693;-73
2023/10/05 04:26:32;;;;;;;10.68;3.20;;;;;;;;;;5022905;28;20138;-73
2023/10/05 04:29:02;;;;;;;11.10;3.10;;;;;;;;;;5036939;28;20024;-73
2023/10/05 04:31:29;;;;;;;9.73;3.25;;;;;;;;;;5032741;28;20024;-73
2023/10/05 04:33:55;;;;;;;8.82;2.80;;;;;;;;;;5042076;28;20028;-73
2023/10/05 04:36:22;;;;;;;8.95;2.88;;;;;;;;;;5012357;28;20043;-72
2023/10/05 04:38:48;;;;;;;10.50;3.40;;;;;;;;;;5022172;28;20739;-73
2023/10/05 04:41:14;;;;;;;9.07;2.80;;;;;;;;;;5025398;28;20024;-73
2023/10/05 04:43:40;;;;;;;8.02;3.30;;;;;;;;;;5020137;28;20035;-72
2023/10/05 04:46:07;;;;;;;8.98;3.10;;;;;;;;;;5020753;28;20016;-72
2023/10/05 04:48:32;;;;;;;9.93;3.17;;;;;;;;;;5013780;28;20041;-73
2023/10/05 04:51:01;;;;;;;10.18;3.08;;;;;;;;;;5026582;28;20024;-73
2023/10/05 04:53:27;;;;;;;8.45;3.00;;;;;;;;;;5025547;28;20699;-73
2023/10/05 04:56:10;;;;;;;6.80;2.72;;;;;;;;;;5021964;28;20012;-73
2023/10/05 04:59:06;;;;;;;9.10;3.22;;;;;;;;;;5018522;28;20031;-73
2023/10/05 05:01:46;;;;;;;9.43;3.20;;;;;;;;;;5022020;28;20029;-73
2023/10/05 05:04:27;;;;;;;8.98;2.97;;;;;;;;;;5027005;28;20028;-73
2023/10/05 05:06:55;;;;;;;8.50;2.95;;;;;;;;;;5024792;28;20091;-73
2023/10/05 05:09:21;;;;;;;7.40;3.00;;;;;;;;;;5030604;28;20028;-77
2023/10/05 05:11:47;;;;;;;8.50;2.78;;;;;;;;;;5033306;28;20020;-75
2023/10/05 05:14:12;;;;;;;9.50;3.20;;;;;;;;;;5024980;28;20016;-74
2023/10/05 05:16:40;;;;;;;8.13;3.30;;;;;;;;;;5024812;28;20084;-74
2023/10/05 05:19:06;;;;;;;10.23;3.30;;;;;;;;;;5022165;28;20169;-76
2023/10/05 05:21:34;;;;;;;10.15;3.47;;;;;;;;;;5009477;28;20781;-77
2023/10/05 05:24:00;;;;;;;8.18;3.40;;;;;;;;;;5024261;28;20119;-78
2023/10/05 05:26:26;;;;;;;12.98;3.33;;;;;;;;;;5033938;28;20128;-79
2023/10/05 05:28:52;;;;;;;8.52;3.20;;;;;;;;;;5022956;28;20016;-76
2023/10/05 05:31:18;;;;;;;11.00;3.17;;;;;;;;;;5024282;28;20027;-75
2023/10/05 05:33:44;;;;;;;10.82;3.10;;;;;;;;;;5034464;28;20035;-76
2023/10/05 05:36:11;;;;;;;7.68;3.10;;;;;;;;;;5009839;28;20036;-75
2023/10/05 05:38:38;;;;;;;15.00;3.70;;;;;;;;;;5028429;28;20029;-73
2023/10/05 05:41:18;;;;;;;7.63;3.20;;;;;;;;;;5033300;28;20056;-75
2023/10/05 05:43:45;;;;;;;9.35;3.50;;;;;;;;;;5027230;28;20024;-74
2023/10/05 05:46:12;;;;;;;6.65;3.13;;;;;;;;;;5016163;28;20092;-76
2023/10/05 05:48:39;;;;;;;7.82;3.50;;;;;;;;;;5025091;28;20119;-76
2023/10/05 05:51:13;;;;;;;11.90;3.65;;;;;;;;;;5024413;28;20024;-74
2023/10/05 05:53:38;;;;;;;10.37;3.73;;;;;;;;;;5020950;28;20024;-74
2023/10/05 05:56:04;;;;;;;10.23;3.28;;;;;;;;;;5036324;28;20024;-74
2023/10/05 05:58:29;;;;;;;7.40;3.45;;;;;;;;;;5028739;28;20036;-75
2023/10/05 06:00:55;;;;;;;10.40;3.70;;;;;;;;;;5027648;28;20279;-75
2023/10/05 06:03:21;;;;;;;7.32;3.42;;;;;;;;;;5021984;28;20059;-75
2023/10/05 06:05:48;;;;;;;9.68;3.65;;;;;;;;;;5023963;28;20300;-74
2023/10/05 06:08:16;;;;;;;10.20;3.40;;;;;;;;;;5024228;28;20025;-76
2023/10/05 06:10:43;;;;;;;9.55;3.40;;;;;;;;;;5023469;28;20789;-76
2023/10/05 06:13:11;;;;;;;13.75;3.75;;;;;;;;;;5017608;28;20066;-76
2023/10/05 06:15:37;;;;;;;9.73;3.33;;;;;;;;;;5009738;28;20029;-75
2023/10/05 06:18:03;;;;;;;9.23;3.42;;;;;;;;;;5019904;28;20112;-75
2023/10/05 06:20:28;;;;;;;8.98;2.97;;;;;;;;;;5018376;28;20112;-76
2023/10/05 06:22:57;;;;;;;10.98;3.95;;;;;;;;;;5014371;28;20166;-75
2023/10/05 06:25:23;;;;;;;17.48;3.63;;;;;;;;;;5020123;28;20053;-75
2023/10/05 06:27:48;;;;;;;10.57;3.47;;;;;;;;;;5016418;28;20052;-75
2023/10/05 06:30:15;;;;;;;9.80;3.63;;;;;;;;;;5016067;28;20403;-76
2023/10/05 06:32:43;;;;;;;8.88;3.30;;;;;;;;;;5029920;28;20086;-75
2023/10/05 06:35:09;;;;;;;8.80;3.20;;;;;;;;;;5014661;28;20017;-75
2023/10/05 06:37:37;;;;;;;14.60;3.50;;;;;;;;;;5028775;28;20819;-77
2023/10/05 06:40:09;;;;;;;12.27;3.50;;;;;;;;;;5011413;28;20070;-77
2023/10/05 06:42:35;;;;;;;8.73;3.35;;;;;;;;;;5017939;28;20693;-77
2023/10/05 06:45:00;;;;;;;12.93;4.07;;;;;;;;;;5022446;28;20023;-77
2023/10/05 06:47:36;;;;;;;9.32;4.28;;;;;;;;;;5015625;28;20056;-78
2023/10/05 06:50:09;;;;;;;12.60;4.00;;;;;;;;;;5023408;28;20492;-77
2023/10/05 06:52:49;;;;;;;9.35;3.50;;;;;;;;;;5027459;28;20641;-79
2023/10/05 06:55:17;;;;;;;9.48;3.65;;;;;;;;;;5018626;28;20008;-78
2023/10/05 06:57:43;;;;;;;14.38;3.75;;;;;;;;;;5023265;28;20726;-77
2023/10/05 07:00:16;;;;;;;9.55;3.90;;;;;;;;;;5021370;28;20171;-77
2023/10/05 07:02:49;;;;;;;11.35;3.55;;;;;;;;;;5017505;28;20039;-77
2023/10/05 07:05:15;;;;;;;10.70;3.30;;;;;;;;;;5014968;28;20048;-77
2023/10/05 07:07:43;;;;;;;10.38;3.45;;;;;;;;;;5018431;28;20028;-77
2023/10/05 07:10:10;;;;;;;9.98;3.50;;;;;;;;;;5022044;28;20027;-76
2023/10/05 07:12:46;;;;;;;9.45;3.70;;;;;;;;;;5024117;28;20024;-76
2023/10/05 07:15:12;;;;;;;10.13;3.50;;;;;;;;;;5022477;28;20526;-77
2023/10/05 07:17:37;;;;;;;8.15;3.50;;;;;;;;;;5020869;28;20096;-76
2023/10/05 07:20:03;;;;;;;10.43;3.70;;;;;;;;;;5015436;28;20387;-76
2023/10/05 07:22:29;;;;;;;12.40;3.90;;;;;;;;;;5023555;28;20032;-74
2023/10/05 07:24:56;;;;;;;10.27;3.65;;;;;;;;;;5023310;28;20013;-74
2023/10/05 07:27:21;;;;;;;13.25;3.97;;;;;;;;;;5023711;28;20128;-74
2023/10/05 07:29:47;;;;;;;10.63;3.90;;;;;;;;;;5023760;28;20771;-74
2023/10/05 07:32:13;;;;;;;10.57;3.60;;;;;;;;;;5022952;28;20433;-74
2023/10/05 07:34:42;;;;;;;10.00;3.70;;;;;;;;;;5022815;28;20039;-74
2023/10/05 07:37:11;;;;;;;17.95;4.40;;;;;;;;;;5023560;28;20029;-74
2023/10/05 07:39:41;;;;;;;10.05;3.97;;;;;;;;;;5020287;28;20096;-74
2023/10/05 07:42:10;;;;;;;12.82;4.30;;;;;;;;;;5023552;28;20094;-74
2023/10/05 07:44:37;;;;;;;10.05;3.97;;;;;;;;;;5023540;28;20630;-75
2023/10/05 07:47:04;;;;;;;10.55;4.20;;;;;;;;;;5023547;28;20712;-75
2023/10/05 07:49:30;;;;;;;12.48;4.38;;;;;;;;;;5015043;28;20063;-74
2023/10/05 07:51:56;;;;;;;12.45;4.18;;;;;;;;;;5018200;28;20045;-74
2023/10/05 07:54:22;;;;;;;10.52;3.80;;;;;;;;;;5014489;28;20056;-74
2023/10/05 07:56:47;;;;;;;13.65;3.75;;;;;;;;;;5018331;28;20025;-74
2023/10/05 07:59:15;;;;;;;11.68;4.00;;;;;;;;;;5023890;28;20012;-74
2023/10/05 08:01:41;;;;;;;11.30;3.70;;;;;;;;;;5021779;28;20176;-74
2023/10/05 08:04:11;;;;;;;15.63;3.97;;;;;;;;;;5023013;28;20837;-74
2023/10/05 08:06:38;;;;;;;11.98;4.05;;;;;;;;;;5022687;28;20024;-74
2023/10/05 08:09:05;;;;;;;14.90;4.20;;;;;;;;;;5022456;28;20651;-74
2023/10/05 08:11:32;;;;;;;17.50;4.35;;;;;;;;;;5022421;28;20025;-74
2023/10/05 08:13:57;;;;;;;12.52;4.00;;;;;;;;;;5026108;28;20020;-74
2023/10/05 08:16:23;;;;;;;11.07;4.03;;;;;;;;;;5022579;28;20764;-74
2023/10/05 08:18:49;;;;;;;8.40;3.55;;;;;;;;;;5013456;28;20219;-74
2023/10/05 08:21:14;;;;;;;8.55;3.53;;;;;;;;;;5017627;28;20029;-74
2023/10/05 08:23:39;;;;;;;13.32;4.20;;;;;;;;;;5019920;28;20025;-75
2023/10/05 08:26:07;;;;;;;11.50;4.03;;;;;;;;;;5020595;28;20028;-76
2023/10/05 08:28:32;;;;;;;11.52;4.07;;;;;;;;;;5022602;28;20008;-76
2023/10/05 08:31:07;;;;;;;8.73;3.40;;;;;;;;;;5022559;28;20017;-76
2023/10/05 08:33:37;;;;;;;11.27;3.60;;;;;;;;;;5021988;28;20192;-77
2023/10/05 08:36:06;;;;;;;12.23;3.70;;;;;;;;;;5022124;28;20232;-75
2023/10/05 08:38:34;;;;;;;13.77;3.58;;;;;;;;;;5021942;28;20065;-74
2023/10/05 08:41:07;;;;;;;8.95;3.60;;;;;;;;;;5020257;28;20111;-76
2023/10/05 08:43:46;;;;;;;13.43;3.67;;;;;;;;;;5020438;28;20085;-76
2023/10/05 08:46:14;;;;;;;10.15;3.30;;;;;;;;;;5022010;28;20027;-76
2023/10/05 08:48:41;;;;;;;9.18;3.30;;;;;;;;;;5015321;28;20076;-74
2023/10/05 08:51:10;;;;;;;10.85;3.20;;;;;;;;;;5013230;28;20024;-74
2023/10/05 08:53:50;;;;;;;13.05;3.58;;;;;;;;;;5021998;28;20016;-74
2023/10/05 08:56:17;;;;;;;12.18;3.83;;;;;;;;;;5022191;28;20016;-74
2023/10/05 08:58:45;;;;;;;12.43;3.80;;;;;;;;;;5023962;28;20047;-74
2023/10/05 09:01:31;;;;;;;13.90;3.65;;;;;;;;;;5021152;28;20013;-73
2023/10/05 09:04:01;;;;;;;10.20;3.38;;;;;;;;;;5019309;28;20024;-74
2023/10/05 09:06:28;;;;;;;11.90;3.30;;;;;;;;;;5024049;28;20107;-74
2023/10/05 09:09:01;;;;;;;10.48;3.70;;;;;;;;;;5014226;28;20016;-76
2023/10/05 09:11:34;;;;;;;13.38;3.50;;;;;;;;;;5021714;28;20017;-76
2023/10/05 09:14:13;;;;;;;10.90;3.45;;;;;;;;;;5021248;28;20753;-75
2023/10/05 09:16:47;;;;;;;11.93;3.72;;;;;;;;;;5032533;28;20020;-76
2023/10/05 09:19:24;;;;;;;7.93;3.38;;;;;;;;;;5020253;28;20090;-75
2023/10/05 09:21:50;;;;;;;9.57;3.60;;;;;;;;;;5031428;28;20697;-75
2023/10/05 09:24:21;;;;;;;12.55;4.55;;;;;;;;;;5030438;28;20024;-75
2023/10/05 09:26:56;;;;;;;11.15;4.40;;;;;;;;;;5032385;28;20055;-75
2023/10/05 09:29:23;;;;;;;10.52;3.90;;;;;;;;;;5030442;28;20036;-75
2023/10/05 09:31:57;;;;;;;14.52;4.57;;;;;;;;;;5028029;28;20024;-75
2023/10/05 09:34:35;;;;;;;9.95;3.83;;;;;;;;;;5022010;28;20715;-76
2023/10/05 09:37:11;;;;;;;16.13;3.97;;;;;;;;;;5033800;28;20039;-77
2023/10/05 09:39:44;;;;;;;12.48;3.97;;;;;;;;;;5019619;28;20020;-75
2023/10/05 09:42:17;;;;;;;15.77;4.10;;;;;;;;;;5021200;28;20036;-76
2023/10/05 09:44:53;;;;;;;15.75;4.05;;;;;;;;;;5022008;28;20055;-76
2023/10/05 09:47:27;;;;;;;11.13;3.85;;;;;;;;;;5021162;28;20259;-76
2023/10/05 09:49:54;;;;;;;14.40;4.50;;;;;;;;;;5016271;28;20423;-75
2023/10/05 09:52:23;;;;;;;16.35;4.25;;;;;;;;;;5020370;28;20016;-75
2023/10/05 09:54:49;;;;;;;14.82;4.68;;;;;;;;;;5017679;28;20028;-75
2023/10/05 09:57:20;;;;;;;20.17;4.90;;;;;;;;;;5022605;28;20104;-75
2023/10/05 09:59:57;;;;;;;14.00;4.05;;;;;;;;;;5020130;28;20121;-75
2023/10/05 10:02:26;;;;;;;13.35;3.53;;;;;;;;;;5019172;28;20657;-75
2023/10/05 10:04:52;;;;;;;14.55;3.85;;;;;;;;;;5020566;28;20681;-76
2023/10/05 10:07:22;;;;;;;10.57;3.70;;;;;;;;;;5021287;28;20663;-75
2023/10/05 10:09:53;;;;;;;9.30;3.03;;;;;;;;;;5034248;28;20021;-77
2023/10/05 10:12:38;;;;;;;18.45;4.20;;;;;;;;;;5032683;28;20075;-76
2023/10/05 10:15:24;;;;;;;12.60;4.22;;;;;;;;;;5036693;28;20021;-76
2023/10/05 10:18:03;;;;;;;12.32;3.70;;;;;;;;;;5030874;28;20020;-77
2023/10/05 10:20:38;;;;;;;23.50;3.90;;;;;;;;;;5024071;28;20080;-77
2023/10/05 10:23:21;;;;;;;14.05;3.70;;;;;;;;;;5035105;28;20020;-76
2023/10/05 10:25:51;;;;;;;11.88;3.08;;;;;;;;;;5037905;28;20036;-77
2023/10/05 10:28:56;;;;;;;14.90;3.35;;;;;;;;;;5036912;28;20487;-76
2023/10/05 10:31:29;;;;;;;11.95;3.33;;;;;;;;;;5023035;28;20016;-76
2023/10/05 10:34:05;;;;;;;10.70;2.75;;;;;;;;;;5028911;28;20123;-77
2023/10/05 10:36:53;;;;;;;8.85;2.60;;;;;;;;;;5032237;28;20586;-76
2023/10/05 10:39:23;;;;;;;9.93;2.95;;;;;;;;;;5034204;28;20028;-76
2023/10/05 10:42:04;;;;;;;9.90;2.97;;;;;;;;;;5034899;28;20527;-76
2023/10/05 10:47:15;;;;;;;12.85;2.72;;;;;;;;;;5034840;28;20027;-75
2023/10/05 10:49:59;;;;;;;8.50;3.00;;;;;;;;;;5034996;28;20039;-76
2023/10/05 10:52:25;;;;;;;14.70;2.75;;;;;;;;;;5038607;28;20138;-76
2023/10/05 10:54:54;;;;;;;10.73;2.90;;;;;;;;;;5033083;28;20054;-75
2023/10/05 10:57:22;;;;;;;5.85;2.08;;;;;;;;;;5031586;28;20503;-76
2023/10/05 10:59:49;;;;;;;10.75;2.05;;;;;;;;;;5028780;28;20086;-75
2023/10/05 11:02:23;;;;;;;11.68;2.80;;;;;;;;;;5032557;28;20133;-75
2023/10/05 11:04:49;;;;;;;7.07;2.33;;;;;;;;;;5034114;28;20033;-76
2023/10/05 11:07:15;;;;;;;8.77;2.50;;;;;;;;;;5032654;28;20020;-75
2023/10/05 11:09:52;;;;;;;9.80;2.90;;;;;;;;;;5031251;28;20227;-75
2023/10/05 11:12:21;;;;;;;11.95;2.70;;;;;;;;;;5035740;28;20036;-76
2023/10/05 11:14:47;;;;;;;7.65;2.50;;;;;;;;;;5034274;28;20459;-75
2023/10/05 11:17:23;;;;;;;10.45;2.90;;;;;;;;;;5035175;28;20020;-74
2023/10/05 11:19:49;;;;;;;13.77;2.60;;;;;;;;;;5032316;28;20545;-74
2023/10/05 11:22:23;;;;;;;10.95;2.60;;;;;;;;;;5039073;28;20024;-76
2023/10/05 11:25:00;;;;;;;13.18;2.90;;;;;;;;;;5025308;28;20804;-76
2023/10/05 11:27:25;;;;;;;8.45;2.75;;;;;;;;;;5029604;28;20158;-75
2023/10/05 11:29:55;;;;;;;8.82;2.45;;;;;;;;;;5033928;28;20237;-76
2023/10/05 11:32:24;;;;;;;8.98;2.58;;;;;;;;;;5030014;28;20032;-75
2023/10/05 11:34:55;;;;;;;6.63;2.50;;;;;;;;;;5033407;28;20032;-75
2023/10/05 11:37:23;;;;;;;8.27;2.50;;;;;;;;;;5028690;28;20606;-76
2023/10/05 11:39:58;;;;;;;7.95;2.38;;;;;;;;;;5035974;28;20432;-76
2023/10/05 11:42:24;;;;;;;8.35;2.50;;;;;;;;;;5026542;28;20033;-77
2023/10/05 11:45:16;;;;;;;7.82;2.42;;;;;;;;;;5026633;28;20382;-75
2023/10/05 11:47:56;;;;;;;8.43;2.30;;;;;;;;;;5020326;28;20107;-76
2023/10/05 11:50:25;;;;;;;8.98;2.40;;;;;;;;;;5023596;28;20104;-76
2023/10/05 11:52:52;;;;;;;11.73;3.35;;;;;;;;;;5030685;28;20090;-75
2023/10/05 11:55:18;;;;;;;9.18;2.90;;;;;;;;;;5030037;28;20012;-76
2023/10/05 11:57:44;;;;;;;12.32;2.90;;;;;;;;;;5019261;28;20691;-75
2023/10/05 12:00:13;;;;;;;9.32;2.67;;;;;;;;;;5013744;28;20055;-76
2023/10/05 12:02:38;;;;;;;7.03;2.55;;;;;;;;;;5022797;28;20012;-75
2023/10/05 12:05:05;;;;;;;8.30;2.50;;;;;;;;;;5021217;28;20616;-76
2023/10/05 12:07:30;;;;;;;10.85;2.92;;;;;;;;;;5016117;28;20165;-76
2023/10/05 12:09:56;;;;;;;11.23;3.13;;;;;;;;;;5027097;28;20523;-76
2023/10/05 12:12:22;;;;;;;8.70;2.45;;;;;;;;;;5025804;28;20028;-76
2023/10/05 12:14:47;;;;;;;9.35;2.60;;;;;;;;;;5029738;28;20402;-76
2023/10/05 12:17:13;;;;;;;8.32;2.70;;;;;;;;;;5021404;28;20024;-77
2023/10/05 12:19:39;;;;;;;11.32;2.40;;;;;;;;;;5015858;28;20091;-77
2023/10/05 12:22:06;;;;;;;8.70;2.67;;;;;;;;;;5025984;28;20124;-76
2023/10/05 12:24:33;;;;;;;8.57;2.50;;;;;;;;;;5026181;28;20019;-76
2023/10/05 12:26:59;;;;;;;8.48;2.67;;;;;;;;;;5022962;28;20062;-76
2023/10/05 12:29:26;;;;;;;6.82;2.50;;;;;;;;;;5022211;28;20025;-77
2023/10/05 12:31:51;;;;;;;7.43;2.42;;;;;;;;;;5022420;28;20058;-76
2023/10/05 12:34:19;;;;;;;6.55;2.33;;;;;;;;;;5023108;28;20020;-76
2023/10/05 12:36:51;;;;;;;6.25;2.28;;;;;;;;;;5022640;28;20769;-75
2023/10/05 12:39:33;;;;;;;8.02;2.22;;;;;;;;;;5025893;28;20103;-76
2023/10/05 12:42:00;;;;;;;6.10;2.13;;;;;;;;;;5024321;28;20020;-75
2023/10/05 12:44:27;;;;;;;9.10;2.53;;;;;;;;;;5031105;28;20020;-76
2023/10/05 12:46:53;;;;;;;8.15;2.45;;;;;;;;;;5023372;28;20707;-75
2023/10/05 12:49:19;;;;;;;8.70;2.95;;;;;;;;;;5022584;28;20033;-75
2023/10/05 12:51:46;;;;;;;8.18;2.60;;;;;;;;;;5020049;28;20016;-76
2023/10/05 12:54:18;;;;;;;7.05;2.35;;;;;;;;;;5024059;28;20021;-76
2023/10/05 12:56:50;;;;;;;5.78;2.40;;;;;;;;;;5030544;28;20032;-76
2023/10/05 12:59:18;;;;;;;7.88;2.53;;;;;;;;;;5024820;28;20059;-76
2023/10/05 13:01:44;;;;;;;10.05;2.33;;;;;;;;;;5022198;28;20678;-74
2023/10/05 13:04:14;;;;;;;5.88;2.33;;;;;;;;;;5021744;28;20117;-74
2023/10/05 13:06:40;;;;;;;4.97;2.10;;;;;;;;;;5021445;28;20040;-74
2023/10/05 13:09:11;;;;;;;6.95;2.00;;;;;;;;;;5026779;28;20028;-75
2023/10/05 13:11:39;;;;;;;7.00;2.30;;;;;;;;;;5023744;28;20028;-74
2023/10/05 13:14:08;;;;;;;9.38;2.42;;;;;;;;;;5024865;28;20020;-74
2023/10/05 13:16:35;;;;;;;5.35;2.28;;;;;;;;;;5025151;28;20012;-74
2023/10/05 13:19:00;;;;;;;6.90;2.35;;;;;;;;;;5012031;28;20838;-74
2023/10/05 13:21:26;;;;;;;7.97;2.30;;;;;;;;;;5018494;28;20476;-74
2023/10/05 13:23:54;;;;;;;7.13;2.47;;;;;;;;;;5021573;28;20021;-74
2023/10/05 13:26:21;;;;;;;7.72;2.22;;;;;;;;;;5021385;28;20008;-74
2023/10/05 13:28:47;;;;;;;11.85;2.90;;;;;;;;;;5021496;28;20131;-74
2023/10/05 13:31:13;;;;;;;6.57;2.30;;;;;;;;;;5021237;28;20808;-75
2023/10/05 13:33:40;;;;;;;6.07;2.15;;;;;;;;;;5023886;28;20012;-74
2023/10/05 13:36:12;;;;;;;8.77;2.40;;;;;;;;;;5021388;28;20016;-76
2023/10/05 13:38:43;;;;;;;7.85;2.50;;;;;;;;;;5012770;28;20017;-77
2023/10/05 13:41:14;;;;;;;8.35;2.58;;;;;;;;;;5021448;28;20119;-74
2023/10/05 13:43:41;;;;;;;7.65;2.25;;;;;;;;;;5021463;28;20082;-75
2023/10/05 13:46:12;;;;;;;7.22;2.20;;;;;;;;;;5021353;28;20020;-74
2023/10/05 13:48:42;;;;;;;9.77;2.50;;;;;;;;;;5017765;28;20132;-76
2023/10/05 13:51:11;;;;;;;9.25;2.63;;;;;;;;;;5017627;28;20024;-76
2023/10/05 13:53:44;;;;;;;6.40;2.25;;;;;;;;;;5016124;28;20615;-75
2023/10/05 13:56:11;;;;;;;5.78;2.20;;;;;;;;;;5021483;28;20647;-75
2023/10/05 13:58:40;;;;;;;8.38;2.47;;;;;;;;;;5014833;28;20081;-75
2023/10/05 14:01:09;;;;;;;7.13;2.40;;;;;;;;;;5015900;28;20476;-75
2023/10/05 14:03:36;;;;;;;8.30;2.45;;;;;;;;;;5021211;28;20118;-75
2023/10/05 14:06:04;;;;;;;6.65;2.15;;;;;;;;;;5021646;28;20017;-75
2023/10/05 14:08:33;;;;;;;8.05;2.60;;;;;;;;;;5021951;28;20040;-75
2023/10/05 14:11:01;;;;;;;8.70;2.33;;;;;;;;;;5025259;28;20032;-74
2023/10/05 14:13:28;;;;;;;8.90;2.70;;;;;;;;;;5028004;28;20084;-75
2023/10/05 14:15:54;;;;;;;6.13;2.55;;;;;;;;;;5031720;28;20016;-75
2023/10/05 14:18:19;;;;;;;5.70;2.28;;;;;;;;;;5019591;28;20018;-75
2023/10/05 14:20:51;;;;;;;7.88;2.58;;;;;;;;;;5020868;28;20094;-74
2023/10/05 14:23:19;;;;;;;7.68;2.92;;;;;;;;;;5025497;28;20020;-74
2023/10/05 14:25:45;;;;;;;8.40;2.40;;;;;;;;;;5024067;28;20651;-75
2023/10/05 14:28:18;;;;;;;7.35;2.42;;;;;;;;;;5024744;28;20021;-74
2023/10/05 14:30:45;;;;;;;7.10;2.28;;;;;;;;;;5025010;28;20843;-76
2023/10/05 14:33:17;;;;;;;8.85;2.63;;;;;;;;;;5024194;28;20082;-75
2023/10/05 14:35:44;;;;;;;6.03;2.47;;;;;;;;;;5024908;28;20028;-75
2023/10/05 14:38:16;;;;;;;5.30;2.17;;;;;;;;;;5024892;28;20028;-77
2023/10/05 14:40:46;;;;;;;8.93;2.50;;;;;;;;;;5024349;28;20029;-76
2023/10/05 14:43:28;;;;;;;7.38;2.13;;;;;;;;;;5024902;28;20032;-74
2023/10/05 14:45:54;;;;;;;12.68;3.28;;;;;;;;;;5033526;28;20061;-74
2023/10/05 14:48:29;;;;;;;6.65;2.35;;;;;;;;;;5031349;28;20112;-76
2023/10/05 14:51:04;;;;;;;8.52;2.53;;;;;;;;;;5029838;28;20039;-75
2023/10/05 14:53:31;;;;;;;11.65;3.53;;;;;;;;;;5037668;28;20031;-75
2023/10/05 14:55:57;;;;;;;9.45;2.78;;;;;;;;;;5046533;28;20031;-75
2023/10/05 14:58:25;;;;;;;10.35;2.72;;;;;;;;;;5028784;28;20143;-76
2023/10/05 15:00:53;;;;;;;8.95;2.65;;;;;;;;;;5023979;28;20032;-79
2023/10/05 15:03:23;;;;;;;8.55;2.40;;;;;;;;;;5024436;28;20035;-77
2023/10/05 15:05:48;;;;;;;8.63;2.53;;;;;;;;;;5027442;28;20020;-76
2023/10/05 15:08:14;;;;;;;10.02;2.60;;;;;;;;;;5027250;28;20024;-76